Time;durP1;ratioP1;P1;durP2;ratioP2;P2;SDS_P1;SDS_P2;PMS_P1;PMS_P2;Temp;Humidity;BMP_temperature;BMP_pressure;BME280_temperature;BME280_humidity;BME280_pressure;Samples;Min_cycle;Max_cycle;Signal;HPM_P1;HPM_P2
2021/07/21 00:00:38;;;;;;;7.25;6.50;;;24.70;99.90;;;;;;5073096;28;20210;-72
2021/07/21 00:03:07;;;;;;;7.00;6.30;;;24.70;99.90;;;;;;5073050;28;20214;-72
2021/07/21 00:05:36;;;;;;;8.20;7.43;;;24.60;99.90;;;;;;5072494;28;20297;-71
2021/07/21 00:08:03;;;;;;;7.63;6.93;;;24.60;99.90;;;;;;5073301;28;20625;-71
2021/07/21 00:10:32;;;;;;;7.55;6.75;;;24.60;99.90;;;;;;5072656;28;20264;-72
2021/07/21 00:15:54;;;;;;;9.13;8.02;;;24.50;99.90;;;;;;5072216;28;20208;-72
2021/07/21 00:18:26;;;;;;;10.20;7.55;;;24.50;99.90;;;;;;5072274;28;20209;-73
2021/07/21 00:20:53;;;;;;;10.32;7.00;;;24.40;99.90;;;;;;5072048;28;20216;-72
2021/07/21 00:23:20;;;;;;;11.50;9.50;;;24.40;99.90;;;;;;5072686;28;20263;-73
2021/07/21 00:25:50;;;;;;;12.57;8.85;;;24.40;99.90;;;;;;5071916;28;20300;-73
2021/07/21 00:28:17;;;;;;;9.75;8.60;;;24.40;99.90;;;;;;5072381;28;20228;-73
2021/07/21 00:30:44;;;;;;;7.55;6.82;;;24.30;99.90;;;;;;5072226;28;20206;-72
2021/07/21 00:33:11;;;;;;;11.15;8.70;;;24.20;99.90;;;;;;5072189;28;20198;-73
2021/07/21 00:35:39;;;;;;;10.57;7.85;;;24.30;99.90;;;;;;5071844;28;20260;-72
2021/07/21 00:38:06;;;;;;;7.88;7.10;;;24.20;99.90;;;;;;5072347;28;20202;-72
2021/07/21 00:40:33;;;;;;;9.27;8.30;;;24.10;99.90;;;;;;5072784;28;20202;-72
2021/07/21 00:43:02;;;;;;;10.05;7.82;;;24.10;99.90;;;;;;5071864;28;20210;-72
2021/07/21 00:45:29;;;;;;;9.52;8.05;;;24.10;99.90;;;;;;5072061;28;20206;-72
2021/07/21 00:47:56;;;;;;;9.00;7.85;;;24.10;99.90;;;;;;5071949;28;20749;-71
2021/07/21 00:50:23;;;;;;;9.60;7.35;;;24.10;99.90;;;;;;5071366;28;20727;-71
2021/07/21 00:52:52;;;;;;;9.32;7.93;;;24.00;99.90;;;;;;5071607;28;20238;-71
2021/07/21 00:55:19;;;;;;;9.30;8.35;;;24.00;99.90;;;;;;5071843;28;20202;-71
2021/07/21 00:57:46;;;;;;;11.70;7.82;;;23.90;99.90;;;;;;5071436;28;20210;-71
2021/07/21 01:00:17;;;;;;;9.63;8.55;;;23.90;99.90;;;;;;5071717;28;20628;-71
2021/07/21 01:02:46;;;;;;;9.85;8.15;;;23.90;99.90;;;;;;5071355;28;20210;-71
2021/07/21 01:05:15;;;;;;;8.60;7.70;;;23.90;99.90;;;;;;5071141;28;20221;-71
2021/07/21 01:07:44;;;;;;;11.63;8.77;;;24.00;99.90;;;;;;5071241;28;20599;-71
2021/07/21 01:10:12;;;;;;;9.52;8.55;;;23.90;99.90;;;;;;5071531;28;20206;-71
2021/07/21 01:12:43;;;;;;;12.48;8.20;;;23.90;99.90;;;;;;5071146;28;20288;-71
2021/07/21 01:15:13;;;;;;;10.75;8.25;;;23.80;99.90;;;;;;5071373;28;20247;-71
2021/07/21 01:17:47;;;;;;;12.60;8.73;;;23.80;99.90;;;;;;5070563;28;20268;-71
2021/07/21 01:20:52;;;;;;;9.27;8.38;;;23.70;99.90;;;;;;5084480;28;20251;-71
2021/07/21 01:23:40;;;;;;;11.10;8.98;;;23.70;99.90;;;;;;5066046;28;20250;-71
2021/07/21 01:26:10;;;;;;;9.18;8.27;;;23.80;99.90;;;;;;5091065;28;20221;-71
2021/07/21 01:28:39;;;;;;;9.85;8.82;;;23.70;99.90;;;;;;5090575;28;20263;-71
2021/07/21 01:31:10;;;;;;;10.77;9.10;;;23.60;99.90;;;;;;5091454;28;20619;-71
2021/07/21 01:33:39;;;;;;;10.57;9.38;;;23.60;99.90;;;;;;5090875;28;20263;-71
2021/07/21 01:36:10;;;;;;;9.30;8.32;;;23.70;99.90;;;;;;5091303;28;20206;-71
2021/07/21 01:38:41;;;;;;;12.30;8.77;;;23.70;99.90;;;;;;5090523;28;20205;-71
2021/07/21 01:41:11;;;;;;;10.05;8.55;;;23.70;99.90;;;;;;5091207;28;20718;-71
2021/07/21 01:43:42;;;;;;;10.30;9.30;;;23.70;99.90;;;;;;5091083;28;20278;-74
2021/07/21 01:46:10;;;;;;;11.05;9.95;;;23.70;99.90;;;;;;5091116;28;20242;-74
2021/07/21 01:48:40;;;;;;;11.43;9.48;;;23.60;99.90;;;;;;5090582;28;20282;-74
2021/07/21 01:51:10;;;;;;;10.23;9.23;;;23.60;99.90;;;;;;5090638;28;20201;-74
2021/07/21 01:53:39;;;;;;;14.32;9.50;;;23.60;99.90;;;;;;5090628;28;20669;-74
2021/07/21 01:56:08;;;;;;;12.35;9.70;;;23.60;99.90;;;;;;5090938;28;20205;-73
2021/07/21 01:58:36;;;;;;;10.80;9.70;;;23.50;99.90;;;;;;5091516;28;20206;-74
2021/07/21 02:01:06;;;;;;;11.43;10.25;;;23.50;99.90;;;;;;5091069;28;20681;-73
2021/07/21 02:03:35;;;;;;;11.52;10.38;;;23.50;99.90;;;;;;5090988;28;20209;-73
2021/07/21 02:06:06;;;;;;;14.30;10.90;;;23.50;99.90;;;;;;5090871;28;20764;-73
2021/07/21 02:08:34;;;;;;;12.57;10.68;;;23.50;99.90;;;;;;5091313;28;20205;-73
2021/07/21 02:11:04;;;;;;;13.70;10.30;;;23.40;99.90;;;;;;5090709;28;20677;-74
2021/07/21 02:13:32;;;;;;;10.45;9.43;;;23.40;99.90;;;;;;5091170;28;20258;-73
2021/07/21 02:16:01;;;;;;;11.82;10.63;;;23.40;99.90;;;;;;5090351;28;20251;-74
2021/07/21 02:18:30;;;;;;;15.98;12.40;;;23.40;99.90;;;;;;5090859;28;20292;-74
2021/07/21 02:20:58;;;;;;;12.77;11.57;;;23.40;99.90;;;;;;5090255;28;20615;-74
2021/07/21 02:23:28;;;;;;;12.98;11.55;;;23.40;99.90;;;;;;5090562;28;20209;-73
2021/07/21 02:25:59;;;;;;;12.88;11.52;;;23.40;99.90;;;;;;5090075;28;20225;-73
2021/07/21 02:28:26;;;;;;;12.57;11.25;;;23.30;99.90;;;;;;5090368;28;20283;-73
2021/07/21 02:30:57;;;;;;;11.38;10.25;;;23.30;99.90;;;;;;5090248;28;20205;-76
2021/07/21 02:33:30;;;;;;;13.88;11.35;;;23.20;99.90;;;;;;5090499;28;20278;-73
2021/07/21 02:35:59;;;;;;;13.35;10.95;;;23.20;99.90;;;;;;5090354;28;20220;-73
2021/07/21 02:38:27;;;;;;;12.32;11.10;;;23.20;99.90;;;;;;5090162;28;20209;-73
2021/07/21 02:40:55;;;;;;;13.13;11.93;;;23.20;99.90;;;;;;5093158;28;20678;-73
2021/07/21 02:43:22;;;;;;;13.30;12.00;;;23.30;99.90;;;;;;5094652;28;20281;-73
2021/07/21 02:45:49;;;;;;;13.30;11.90;;;23.50;99.90;;;;;;5066262;28;20247;-73
2021/07/21 02:48:16;;;;;;;14.00;12.35;;;23.40;99.90;;;;;;5094840;28;20350;-73
2021/07/21 02:50:48;;;;;;;13.15;11.82;;;23.40;99.90;;;;;;5094026;28;20585;-73
2021/07/21 02:53:22;;;;;;;14.35;12.85;;;23.40;99.90;;;;;;5094616;28;20319;-73
2021/07/21 02:55:52;;;;;;;14.90;12.15;;;23.30;99.90;;;;;;5093693;28;20251;-73
2021/07/21 02:58:34;;;;;;;14.30;12.75;;;23.30;99.90;;;;;;5094317;28;20209;-73
2021/07/21 03:01:03;;;;;;;16.55;14.13;;;23.40;99.90;;;;;;5094080;28;20665;-73
2021/07/21 03:03:33;;;;;;;14.43;13.10;;;23.30;99.90;;;;;;5094463;28;20209;-73
2021/07/21 03:06:05;;;;;;;15.43;12.55;;;23.40;99.90;;;;;;5093647;28;20745;-74
2021/07/21 03:08:34;;;;;;;13.35;12.13;;;23.30;99.90;;;;;;5094634;28;20629;-73
2021/07/21 03:11:03;;;;;;;14.07;12.77;;;23.20;99.90;;;;;;5093952;28;20204;-73
2021/07/21 03:13:34;;;;;;;16.23;13.63;;;23.20;99.90;;;;;;5093953;28;20286;-75
2021/07/21 03:16:01;;;;;;;17.40;14.23;;;23.20;99.90;;;;;;5093788;28;20197;-75
2021/07/21 03:18:31;;;;;;;14.50;13.10;;;23.10;99.90;;;;;;5094196;28;20262;-74
2021/07/21 03:20:58;;;;;;;14.88;13.32;;;23.10;99.90;;;;;;5093231;28;20616;-73
2021/07/21 03:23:31;;;;;;;14.85;13.25;;;23.00;99.90;;;;;;5094156;28;20210;-73
2021/07/21 03:26:05;;;;;;;19.73;13.43;;;22.90;99.90;;;;;;5092878;28;20700;-73
2021/07/21 03:28:33;;;;;;;15.60;14.00;;;23.00;99.90;;;;;;5093891;28;20710;-73
2021/07/21 03:31:01;;;;;;;14.75;13.20;;;22.90;99.90;;;;;;5093326;28;20635;-73
2021/07/21 03:33:29;;;;;;;16.35;13.32;;;22.90;99.90;;;;;;5093565;28;20233;-74
2021/07/21 03:36:01;;;;;;;14.77;13.23;;;22.90;99.90;;;;;;5093386;28;20216;-73
2021/07/21 03:38:29;;;;;;;16.70;13.43;;;22.80;99.90;;;;;;5093253;28;20205;-72
2021/07/21 03:41:00;;;;;;;20.45;13.98;;;22.90;99.90;;;;;;5093109;28;20688;-74
2021/07/21 03:43:27;;;;;;;14.57;13.02;;;22.90;99.90;;;;;;5092941;28;20225;-73
2021/07/21 03:45:59;;;;;;;14.10;12.77;;;23.00;99.90;;;;;;5093189;28;20259;-74
2021/07/21 03:48:28;;;;;;;16.58;14.82;;;22.90;99.90;;;;;;5093191;28;20741;-74
2021/07/21 03:50:58;;;;;;;15.60;13.95;;;22.90;99.90;;;;;;5064883;28;20209;-73
2021/07/21 03:53:26;;;;;;;18.45;13.50;;;22.80;99.90;;;;;;5092967;28;20241;-74
2021/07/21 03:55:54;;;;;;;16.25;12.75;;;22.90;99.90;;;;;;5092810;28;20247;-74
2021/07/21 03:58:25;;;;;;;16.42;13.30;;;22.80;99.90;;;;;;5092912;28;20206;-74
2021/07/21 04:00:56;;;;;;;14.75;13.25;;;22.90;99.90;;;;;;5092174;28;20221;-75
2021/07/21 04:03:25;;;;;;;14.63;13.15;;;22.80;99.90;;;;;;5093434;28;20618;-72
2021/07/21 04:05:55;;;;;;;15.05;13.68;;;22.80;99.90;;;;;;5092726;28;20198;-72
2021/07/21 04:08:23;;;;;;;14.13;12.63;;;22.70;99.90;;;;;;5092851;28;20240;-73
2021/07/21 04:10:53;;;;;;;16.27;14.63;;;22.60;99.90;;;;;;5092316;28;20661;-73
2021/07/21 04:13:22;;;;;;;18.30;14.93;;;22.60;99.90;;;;;;5092689;28;20287;-73
2021/07/21 04:15:51;;;;;;;17.55;13.93;;;22.60;99.90;;;;;;5092230;28;20255;-72
2021/07/21 04:18:22;;;;;;;16.67;13.98;;;22.50;99.90;;;;;;5092766;28;20206;-73
2021/07/21 04:20:49;;;;;;;15.52;13.73;;;22.50;99.90;;;;;;5092537;28;20255;-72
2021/07/21 04:23:17;;;;;;;17.55;15.32;;;22.40;99.90;;;;;;5092759;28;20206;-72
2021/07/21 04:25:45;;;;;;;15.02;13.45;;;22.50;99.90;;;;;;5092451;28;20218;-73
2021/07/21 04:28:13;;;;;;;15.18;13.50;;;22.50;99.90;;;;;;5091931;28;20251;-72
2021/07/21 04:30:43;;;;;;;16.50;14.73;;;22.40;99.90;;;;;;5092168;28;20209;-72
2021/07/21 04:33:10;;;;;;;14.25;12.88;;;22.50;99.90;;;;;;5092738;28;20584;-72
2021/07/21 04:35:38;;;;;;;18.30;13.63;;;22.50;99.90;;;;;;5064415;28;20202;-73
2021/07/21 04:38:06;;;;;;;17.73;14.25;;;22.40;99.90;;;;;;5092603;28;20665;-73
2021/07/21 04:40:33;;;;;;;14.88;13.40;;;22.30;99.90;;;;;;5092488;28;20209;-73
2021/07/21 04:43:00;;;;;;;15.40;13.90;;;22.40;99.90;;;;;;5091763;28;20573;-71
2021/07/21 04:45:27;;;;;;;17.10;14.18;;;22.30;99.90;;;;;;5092413;28;20202;-72
2021/07/21 04:47:55;;;;;;;16.95;15.13;;;22.30;99.90;;;;;;5092011;28;20206;-72
2021/07/21 04:50:24;;;;;;;17.33;15.60;;;22.20;99.90;;;;;;5091859;28;20247;-72
2021/07/21 04:52:51;;;;;;;16.75;14.95;;;22.00;99.90;;;;;;5092383;28;20243;-70
2021/07/21 04:55:18;;;;;;;17.95;16.13;;;22.00;99.90;;;;;;5091086;28;20210;-72
2021/07/21 04:57:48;;;;;;;22.15;17.08;;;22.00;99.90;;;;;;5091580;28;20213;-71
2021/07/21 05:00:16;;;;;;;17.35;15.52;;;22.00;99.90;;;;;;5091898;28;20292;-72
2021/07/21 05:02:43;;;;;;;16.77;14.52;;;22.20;99.90;;;;;;5090849;28;20674;-72
2021/07/21 05:05:12;;;;;;;15.88;14.27;;;22.20;99.90;;;;;;5091375;28;20259;-71
2021/07/21 05:07:39;;;;;;;19.13;17.02;;;22.00;99.90;;;;;;5091631;28;20209;-70
2021/07/21 05:10:07;;;;;;;21.85;15.75;;;21.90;99.90;;;;;;5091807;28;20619;-72
2021/07/21 05:12:34;;;;;;;19.00;15.68;;;21.80;99.90;;;;;;5091499;28;20228;-71
2021/07/21 05:15:01;;;;;;;18.20;16.25;;;21.80;99.90;;;;;;5091662;28;20227;-72
2021/07/21 05:17:28;;;;;;;21.23;16.02;;;21.80;99.90;;;;;;5091049;28;20672;-71
2021/07/21 05:19:55;;;;;;;21.23;16.38;;;21.70;99.90;;;;;;5091701;28;20201;-72
2021/07/21 05:22:23;;;;;;;18.00;16.05;;;21.90;99.90;;;;;;5091512;28;20254;-73
2021/07/21 05:24:50;;;;;;;17.13;15.32;;;21.80;99.90;;;;;;5091153;28;20282;-71
2021/07/21 05:27:17;;;;;;;20.13;15.82;;;21.90;99.90;;;;;;5091188;28;20254;-71
2021/07/21 05:29:44;;;;;;;17.65;15.68;;;21.90;99.90;;;;;;5091305;28;20742;-72
2021/07/21 05:32:11;;;;;;;16.17;14.55;;;21.90;99.90;;;;;;5090468;28;20742;-71
2021/07/21 05:34:38;;;;;;;18.90;16.65;;;22.00;99.90;;;;;;5091723;28;20262;-71
2021/07/21 05:37:05;;;;;;;19.13;14.98;;;22.10;99.90;;;;;;5091584;28;20243;-71
2021/07/21 05:39:33;;;;;;;18.88;16.35;;;22.10;99.90;;;;;;5090819;28;20270;-70
2021/07/21 05:42:00;;;;;;;17.25;15.60;;;22.10;99.90;;;;;;5091103;28;20201;-71
2021/07/21 05:44:28;;;;;;;15.45;13.93;;;21.90;99.90;;;;;;5090754;28;20213;-72
2021/07/21 05:46:55;;;;;;;16.33;13.95;;;21.90;99.90;;;;;;5090902;28;20213;-72
2021/07/21 05:49:22;;;;;;;22.08;16.40;;;22.00;99.90;;;;;;5091108;28;20201;-71
2021/07/21 05:51:49;;;;;;;19.38;16.58;;;22.00;99.90;;;;;;5091067;28;20288;-72
2021/07/21 05:54:16;;;;;;;20.80;18.42;;;21.80;99.90;;;;;;5090453;28;20233;-73
2021/07/21 05:56:48;;;;;;;19.45;16.52;;;21.80;99.90;;;;;;5090858;28;20205;-73
2021/07/21 05:59:17;;;;;;;24.48;18.05;;;21.90;99.90;;;;;;5090372;28;20206;-73
2021/07/21 06:01:44;;;;;;;19.23;15.40;;;21.80;99.90;;;;;;5090689;28;20209;-73
2021/07/21 06:04:12;;;;;;;20.63;15.85;;;21.90;99.90;;;;;;5090144;28;20224;-73
2021/07/21 06:06:42;;;;;;;19.02;16.00;;;22.00;99.90;;;;;;5090412;28;20673;-72
2021/07/21 06:09:09;;;;;;;18.92;16.83;;;20.40;99.90;;;;;;5090614;28;20346;-74
2021/07/21 06:11:37;;;;;;;17.40;15.68;;;21.90;99.90;;;;;;5087341;28;20205;-71
2021/07/21 06:14:05;;;;;;;18.90;16.63;;;22.00;99.90;;;;;;5071668;28;20615;-72
2021/07/21 06:16:32;;;;;;;22.48;16.13;;;22.00;99.90;;;;;;5079699;28;20263;-72
2021/07/21 06:18:59;;;;;;;19.17;16.30;;;22.10;99.90;;;;;;5077009;28;20617;-70
2021/07/21 06:21:27;;;;;;;20.45;16.23;;;22.10;99.90;;;;;;5075824;28;20673;-72
2021/07/21 06:23:54;;;;;;;17.80;15.43;;;22.10;99.90;;;;;;5081071;28;20205;-72
2021/07/21 06:26:21;;;;;;;19.17;16.92;;;22.20;99.90;;;;;;5078638;28;20262;-78
2021/07/21 06:28:49;;;;;;;17.60;15.90;;;22.20;99.90;;;;;;5070697;28;20206;-73
2021/07/21 06:31:17;;;;;;;16.83;15.00;;;22.20;99.90;;;;;;5070152;28;20586;-74
2021/07/21 06:33:44;;;;;;;21.35;15.80;;;22.40;99.90;;;;;;5068718;28;20713;-73
2021/07/21 06:36:12;;;;;;;19.85;16.17;;;22.50;99.90;;;;;;5069395;28;20209;-74
2021/07/21 06:38:39;;;;;;;23.77;16.05;;;22.40;99.90;;;;;;5068128;28;20259;-74
2021/07/21 06:41:06;;;;;;;21.90;16.23;;;22.50;99.90;;;;;;5070546;28;20632;-74
2021/07/21 06:43:33;;;;;;;19.38;17.38;;;22.30;99.90;;;;;;5066690;28;20678;-72
2021/07/21 06:46:00;;;;;;;17.35;15.45;;;22.30;99.90;;;;;;5071321;28;20202;-73
2021/07/21 06:48:28;;;;;;;18.40;16.05;;;22.20;99.90;;;;;;5084210;28;20214;-73
2021/07/21 06:50:55;;;;;;;17.08;14.63;;;22.40;99.90;;;;;;5075058;28;20202;-71
2021/07/21 06:53:22;;;;;;;19.67;17.63;;;22.40;99.90;;;;;;5084782;28;20225;-72
2021/07/21 06:55:49;;;;;;;17.42;15.45;;;24.30;99.90;;;;;;5080616;28;20666;-73
2021/07/21 06:58:16;;;;;;;19.90;16.02;;;22.60;99.90;;;;;;5074256;28;20210;-74
2021/07/21 07:00:44;;;;;;;16.70;14.75;;;22.20;99.90;;;;;;5071666;28;20954;-71
2021/07/21 07:03:11;;;;;;;23.88;17.02;;;24.70;99.90;;;;;;5071099;28;20210;-72
2021/07/21 07:05:39;;;;;;;17.63;15.73;;;22.70;99.90;;;;;;5083141;28;20213;-73
2021/07/21 07:08:06;;;;;;;17.75;15.40;;;24.50;99.90;;;;;;5089909;28;20201;-73
2021/07/21 07:10:33;;;;;;;19.30;16.45;;;22.40;99.90;;;;;;5089573;28;20202;-74
2021/07/21 07:13:00;;;;;;;18.52;16.52;;;22.60;99.90;;;;;;5073369;28;20206;-74
2021/07/21 07:15:27;;;;;;;18.00;14.75;;;22.70;99.90;;;;;;5072260;28;20260;-74
2021/07/21 07:17:54;;;;;;;15.65;14.10;;;22.80;99.90;;;;;;5078412;28;20203;-75
2021/07/21 07:20:21;;;;;;;15.30;13.77;;;22.90;99.90;;;;;;5077756;28;20203;-75
2021/07/21 07:22:49;;;;;;;20.35;17.15;;;22.90;99.90;;;;;;5078996;28;20271;-74
2021/07/21 07:25:16;;;;;;;18.23;14.25;;;22.80;99.90;;;;;;5080994;28;20210;-76
2021/07/21 07:27:43;;;;;;;16.42;14.30;;;22.60;99.90;;;;;;5074248;28;20202;-73
2021/07/21 07:30:14;;;;;;;17.88;16.02;;;22.80;99.90;;;;;;5073155;28;20198;-74
2021/07/21 07:32:41;;;;;;;19.42;14.25;;;22.80;99.90;;;;;;5077672;28;20208;-74
2021/07/21 07:35:09;;;;;;;17.75;15.90;;;22.80;99.90;;;;;;5087250;28;20278;-73
2021/07/21 07:37:37;;;;;;;18.63;14.95;;;22.70;99.90;;;;;;5087007;28;20669;-73
2021/07/21 07:40:07;;;;;;;16.15;14.50;;;22.70;99.90;;;;;;5083296;28;20214;-75
2021/07/21 07:42:34;;;;;;;16.60;14.90;;;22.60;99.90;;;;;;5080882;28;20206;-75
2021/07/21 07:45:01;;;;;;;18.67;16.42;;;22.70;99.90;;;;;;5090283;28;20202;-75
2021/07/21 07:47:28;;;;;;;17.25;14.82;;;22.70;99.90;;;;;;5074495;28;20750;-75
2021/07/21 07:49:55;;;;;;;16.75;14.93;;;22.70;99.90;;;;;;5077363;28;20216;-76
2021/07/21 07:52:22;;;;;;;17.50;15.25;;;22.70;99.90;;;;;;5081814;28;20252;-76
2021/07/21 07:54:49;;;;;;;19.73;15.65;;;22.70;99.90;;;;;;5083610;28;20643;-76
2021/07/21 07:57:18;;;;;;;24.92;17.65;;;22.90;99.90;;;;;;5079471;28;20198;-73
2021/07/21 07:59:45;;;;;;;21.85;16.50;;;23.10;99.90;;;;;;5076679;28;20206;-76
2021/07/21 08:02:12;;;;;;;17.67;15.75;;;23.10;99.90;;;;;;5081907;28;20282;-75
2021/07/21 08:04:39;;;;;;;18.00;16.10;;;23.10;99.90;;;;;;5078207;28;20210;-73
2021/07/21 08:07:06;;;;;;;17.75;16.00;;;23.30;99.90;;;;;;5083118;28;20204;-75
2021/07/21 08:09:33;;;;;;;20.02;16.92;;;23.30;99.90;;;;;;5072161;28;20206;-74
2021/07/21 08:12:00;;;;;;;18.10;16.20;;;23.30;99.90;;;;;;5072068;28;20199;-74
2021/07/21 08:14:28;;;;;;;22.35;17.17;;;23.30;99.90;;;;;;5073295;28;20249;-73
2021/07/21 08:16:56;;;;;;;17.58;15.88;;;23.50;99.90;;;;;;5091463;28;20269;-73
2021/07/21 08:19:24;;;;;;;18.67;16.50;;;23.60;99.90;;;;;;5090347;28;20286;-73
2021/07/21 08:21:52;;;;;;;19.13;15.93;;;23.60;99.90;;;;;;5091675;28;20290;-73
2021/07/21 08:24:19;;;;;;;20.25;17.50;;;23.80;99.90;;;;;;5088134;28;20600;-74
2021/07/21 08:26:46;;;;;;;19.65;17.02;;;23.50;99.90;;;;;;5074114;28;20210;-76
2021/07/21 08:29:13;;;;;;;19.25;16.02;;;23.60;99.90;;;;;;5071992;28;20210;-76
2021/07/21 08:31:42;;;;;;;19.63;16.92;;;23.80;99.90;;;;;;5073587;28;20206;-77
2021/07/21 08:34:10;;;;;;;20.38;16.73;;;24.00;99.90;;;;;;5073478;28;20303;-78
2021/07/21 08:36:38;;;;;;;19.40;16.17;;;23.70;99.90;;;;;;5074127;28;20212;-76
2021/07/21 08:39:09;;;;;;;17.67;15.98;;;24.00;99.90;;;;;;5072484;28;20271;-77
2021/07/21 08:41:38;;;;;;;16.88;15.18;;;23.70;99.90;;;;;;5072240;28;20297;-78
2021/07/21 08:44:05;;;;;;;17.90;16.10;;;23.90;99.90;;;;;;5072181;28;20206;-77
2021/07/21 08:46:32;;;;;;;19.27;15.52;;;23.90;99.90;;;;;;5071625;28;20267;-77
2021/07/21 08:49:01;;;;;;;19.55;17.25;;;24.00;99.90;;;;;;5071740;28;20203;-77
2021/07/21 08:51:28;;;;;;;18.50;16.65;;;24.00;99.90;;;;;;5071629;28;20789;-77
2021/07/21 08:53:56;;;;;;;18.17;16.27;;;24.10;99.90;;;;;;5071698;28;20283;-76
2021/07/21 08:56:23;;;;;;;19.13;16.92;;;24.10;99.90;;;;;;5071312;28;20202;-77
2021/07/21 08:58:51;;;;;;;20.80;17.38;;;23.50;99.90;;;;;;5071687;28;20206;-76
2021/07/21 09:01:19;;;;;;;21.20;18.20;;;23.60;99.90;;;;;;5071085;28;20209;-76
2021/07/21 09:03:46;;;;;;;17.55;15.75;;;23.90;99.90;;;;;;5071656;28;20236;-77
2021/07/21 09:06:15;;;;;;;18.05;15.77;;;24.30;99.90;;;;;;5059187;28;20666;-77
2021/07/21 09:08:43;;;;;;;19.70;17.40;;;24.60;99.90;;;;;;5071335;28;20210;-76
2021/07/21 09:11:11;;;;;;;18.42;16.35;;;24.60;99.90;;;;;;5071140;28;20210;-76
2021/07/21 09:13:39;;;;;;;18.48;16.45;;;24.80;99.90;;;;;;5071614;28;20610;-75
2021/07/21 09:16:07;;;;;;;17.63;15.85;;;25.20;99.90;;;;;;5071336;28;20208;-77
2021/07/21 09:18:47;;;;;;;20.90;18.73;;;25.40;99.90;;;;;;5071178;28;20674;-76
2021/07/21 09:21:19;;;;;;;17.95;16.15;;;25.30;99.90;;;;;;5070910;28;20715;-76
2021/07/21 09:23:48;;;;;;;21.42;18.50;;;25.20;99.90;;;;;;5071362;28;20210;-75
2021/07/21 09:26:19;;;;;;;22.98;18.55;;;24.90;99.90;;;;;;5070373;28;20666;-74
2021/07/21 09:28:46;;;;;;;23.13;17.13;;;24.90;99.90;;;;;;5091239;28;20205;-75
2021/07/21 09:31:27;;;;;;;20.90;17.83;;;24.70;99.90;;;;;;5090703;28;20263;-76
2021/07/21 09:33:55;;;;;;;18.23;15.77;;;24.60;99.90;;;;;;5091378;28;20217;-76
2021/07/21 09:36:23;;;;;;;22.58;16.75;;;24.20;99.90;;;;;;5091142;28;20263;-76
2021/07/21 09:38:51;;;;;;;18.83;16.92;;;24.70;99.90;;;;;;5091259;28;20330;-75
2021/07/21 09:41:19;;;;;;;22.60;16.67;;;25.00;99.90;;;;;;5090859;28;20201;-76
2021/07/21 09:43:46;;;;;;;17.92;15.98;;;25.70;99.90;;;;;;5077351;28;20268;-76
2021/07/21 09:46:15;;;;;;;22.02;17.00;;;26.10;99.90;;;;;;5090447;28;20255;-75
2021/07/21 09:48:44;;;;;;;19.58;17.08;;;26.10;99.90;;;;;;5076415;28;20239;-75
2021/07/21 09:51:25;;;;;;;21.25;17.33;;;26.00;99.90;;;;;;5090201;28;20663;-75
2021/07/21 09:53:53;;;;;;;20.23;17.73;;;25.70;99.90;;;;;;5090885;28;20233;-75
2021/07/21 09:56:29;;;;;;;18.38;16.50;;;25.80;99.90;;;;;;5080760;28;20201;-75
2021/07/21 09:59:18;;;;;;;20.05;16.83;;;26.10;99.90;;;;;;5085896;28;20212;-75
2021/07/21 10:01:45;;;;;;;22.13;16.75;;;26.10;99.90;;;;;;5081960;28;20202;-75
2021/07/21 10:04:12;;;;;;;19.30;17.25;;;26.40;99.90;;;;;;5087593;28;20258;-75
2021/07/21 10:06:40;;;;;;;19.35;16.83;;;26.40;99.90;;;;;;5088368;28;20232;-75
2021/07/21 10:09:08;;;;;;;18.65;16.75;;;26.20;99.90;;;;;;5079091;28;20624;-76
2021/07/21 10:11:39;;;;;;;19.75;16.42;;;26.30;99.90;;;;;;5091213;28;20206;-76
2021/07/21 10:14:12;;;;;;;18.85;16.92;;;26.20;99.90;;;;;;5090653;28;20213;-75
2021/07/21 10:16:42;;;;;;;19.65;16.90;;;26.70;99.90;;;;;;5090846;28;20205;-75
2021/07/21 10:19:12;;;;;;;20.15;17.70;;;26.90;99.90;;;;;;5087017;28;20210;-75
2021/07/21 10:21:40;;;;;;;21.02;17.00;;;27.00;99.90;;;;;;5073879;28;20267;-75
2021/07/21 10:24:10;;;;;;;20.98;17.48;;;26.90;99.90;;;;;;5080010;28;20627;-75
2021/07/21 10:26:37;;;;;;;18.52;16.58;;;26.90;99.90;;;;;;5090358;28;20258;-76
2021/07/21 10:29:06;;;;;;;16.92;15.27;;;26.50;99.90;;;;;;5086674;28;20211;-75
2021/07/21 10:31:33;;;;;;;20.48;17.25;;;26.70;99.90;;;;;;5073200;28;20198;-73
2021/07/21 10:34:01;;;;;;;19.10;16.77;;;27.10;99.90;;;;;;5077609;28;20263;-72
2021/07/21 10:36:30;;;;;;;19.77;17.67;;;27.40;99.90;;;;;;5071442;28;20658;-73
2021/07/21 10:38:57;;;;;;;23.25;18.23;;;27.30;99.90;;;;;;5072050;28;20259;-73
2021/07/21 10:41:29;;;;;;;19.35;17.35;;;27.30;99.90;;;;;;5070621;28;20247;-75
2021/07/21 10:43:59;;;;;;;18.55;16.90;;;28.70;99.90;;;;;;5079998;28;20229;-74
2021/07/21 10:46:34;;;;;;;18.35;16.42;;;29.20;99.90;;;;;;5082350;28;20206;-74
2021/07/21 10:49:18;;;;;;;23.95;21.50;;;29.20;99.90;;;;;;5083893;28;20334;-74
2021/07/21 10:54:51;;;;;;;66.10;59.38;;;29.10;99.90;;;;;;5075307;28;20342;-72
2021/07/21 11:00:10;;;;;;;22.23;18.88;;;28.10;99.90;;;;;;5070226;28;20255;-74
2021/07/21 11:02:37;;;;;;;19.70;17.67;;;28.30;99.90;;;;;;5072460;28;20272;-74
2021/07/21 11:05:04;;;;;;;24.20;18.42;;;28.30;99.90;;;;;;5074132;28;20210;-74
2021/07/21 11:07:52;;;;;;;28.88;17.25;;;28.20;99.90;;;;;;5072879;28;20636;-73
2021/07/21 11:10:33;;;;;;;19.83;17.80;;;28.00;99.90;;;;;;5073621;28;20290;-74
2021/07/21 11:13:02;;;;;;;18.23;16.30;;;28.00;99.90;;;;;;5073180;28;20678;-74
2021/07/21 11:15:40;;;;;;;20.60;17.67;;;28.10;99.90;;;;;;5073232;28;20276;-73
2021/07/21 11:18:42;;;;;;;19.83;17.92;;;27.70;99.90;;;;;;5074235;28;20255;-74
2021/07/21 11:21:13;;;;;;;20.27;18.17;;;28.00;99.90;;;;;;5051269;28;20198;-74
2021/07/21 11:23:41;;;;;;;19.65;17.75;;;27.20;99.90;;;;;;5051373;28;20207;-74
2021/07/21 11:26:41;;;;;;;19.80;17.73;;;27.10;99.90;;;;;;5061697;28;20686;-75
2021/07/21 11:29:46;;;;;;;19.65;17.20;;;27.60;99.90;;;;;;5071478;28;20626;-74
2021/07/21 11:32:36;;;;;;;19.63;17.27;;;27.70;99.90;;;;;;5093298;28;20205;-74
2021/07/21 11:35:39;;;;;;;20.65;16.02;;;27.70;99.90;;;;;;5093964;28;20240;-74
2021/07/21 11:38:19;;;;;;;19.52;17.42;;;27.00;99.90;;;;;;5093634;28;20209;-73
2021/07/21 11:40:46;;;;;;;19.88;17.88;;;27.20;99.90;;;;;;5065932;28;20201;-72
2021/07/21 11:43:33;;;;;;;19.33;16.52;;;27.50;99.90;;;;;;5093223;28;20206;-74
2021/07/21 11:46:10;;;;;;;22.10;18.75;;;27.50;99.90;;;;;;5062609;28;20272;-74
2021/07/21 11:48:37;;;;;;;21.77;17.48;;;27.10;99.90;;;;;;5081056;28;20292;-73
2021/07/21 11:51:11;;;;;;;20.83;15.68;;;27.20;99.90;;;;;;5078607;28;20886;-74
2021/07/21 11:53:38;;;;;;;18.60;16.70;;;27.50;99.90;;;;;;5078300;28;20202;-73
2021/07/21 11:56:10;;;;;;;19.75;17.65;;;27.10;99.90;;;;;;5080428;28;20240;-74
2021/07/21 11:58:37;;;;;;;17.73;15.98;;;27.30;99.90;;;;;;5077260;28;20210;-75
2021/07/21 12:01:06;;;;;;;18.70;16.92;;;27.40;99.90;;;;;;5077212;28;20202;-73
2021/07/21 12:03:46;;;;;;;19.13;17.17;;;27.50;99.90;;;;;;5088489;28;20292;-74
2021/07/21 12:06:23;;;;;;;19.02;17.00;;;27.30;99.90;;;;;;5088304;28;20205;-73
2021/07/21 12:08:54;;;;;;;20.50;18.05;;;27.70;99.90;;;;;;5090841;28;20284;-75
2021/07/21 12:11:22;;;;;;;18.17;16.30;;;27.60;99.90;;;;;;5087039;28;20202;-72
2021/07/21 12:13:58;;;;;;;18.88;16.58;;;27.60;99.90;;;;;;5083244;28;20270;-75
2021/07/21 12:16:26;;;;;;;21.33;15.65;;;28.00;99.90;;;;;;5083389;28;20237;-73
2021/07/21 12:19:01;;;;;;;20.35;17.25;;;28.20;99.90;;;;;;5077819;28;20237;-73
2021/07/21 12:21:29;;;;;;;17.65;15.30;;;28.00;99.90;;;;;;5082626;28;20942;-74
2021/07/21 12:24:01;;;;;;;18.92;15.88;;;28.10;99.90;;;;;;5083519;28;20300;-74
2021/07/21 12:26:42;;;;;;;20.23;18.13;;;28.40;99.90;;;;;;5080189;28;20221;-75
2021/07/21 12:29:09;;;;;;;19.27;17.17;;;28.70;99.90;;;;;;5085661;28;20198;-73
2021/07/21 12:31:36;;;;;;;18.55;16.58;;;28.40;99.90;;;;;;5079038;28;20247;-74
2021/07/21 12:34:15;;;;;;;20.70;16.70;;;28.50;99.90;;;;;;5078179;28;20209;-74
2021/07/21 12:36:46;;;;;;;17.88;15.88;;;28.80;99.90;;;;;;5079340;28;20270;-73
2021/07/21 12:39:14;;;;;;;19.92;17.92;;;28.90;99.90;;;;;;5072879;28;20202;-74
2021/07/21 12:41:42;;;;;;;20.38;18.30;;;28.40;99.90;;;;;;5084093;28;20289;-75
2021/07/21 12:44:17;;;;;;;18.05;16.17;;;28.70;99.90;;;;;;5079285;28;20297;-75
2021/07/21 12:46:45;;;;;;;18.13;16.33;;;28.60;99.90;;;;;;5081295;28;20205;-74
2021/07/21 12:49:12;;;;;;;18.88;16.35;;;28.40;99.90;;;;;;5077561;28;20199;-72